Tinsdal — V2AJ2 — position and weather

sailwx.info

Track history (hours):
 
Tides and Currents Weather Stations Pressure Air Temp Water Temp Dewpoint Dewpoint Depression Visibility Wind Speed Wind Dir Waves Ship Positions

Tinsdal

Last reported at 2014-Nov-12 15:09 UTC. Time now 2014-Nov-28 00:17 UTC.
Position N 38°20' E 015°29'.
Warning: this ship's position is 15 days out of date.

Length 90 m; draft 5.9 m.

Type: Cargo ship. MMSI: 305573000.

Date/timePositionNaut miles runAvg speedWind from/ knotsBaromVisibWave heightAir tempDewpointWater temp
2014-Nov-12 15:09N 38°20' E 015°29'610.4
2014-Nov-12 14:32N 38°20' E 015°20'10 9.8
2014-Nov-12 13:31N 38°20' E 015°08'66 9.5
2014-Nov-12 06:33N 38°18' E 013°43'10 9.6
2014-Nov-12 05:33N 38°18' E 013°31'1010.5
2014-Nov-12 04:34N 38°18' E 013°18'1111.1
2014-Nov-12 03:33N 38°18' E 013°03'1110.6
2014-Nov-12 02:32N 38°18' E 012°50'  
2014-Nov-08 15:34N 35°55' W 005°18'1 1.3
2014-Nov-08 14:32N 35°54' W 005°18'0 0.0
2014-Nov-08 13:32N 35°54' W 005°18'0 0.0
2014-Nov-08 12:32N 35°54' W 005°18'0 0.0
2014-Nov-08 11:32N 35°54' W 005°18'0 0.0
2014-Nov-08 10:32N 35°54' W 005°18'0 0.0
2014-Nov-08 09:32N 35°54' W 005°18'0 0.0
2014-Nov-08 08:32N 35°54' W 005°18'1 1.1
2014-Nov-08 07:33N 35°55' W 005°19'1 1.1
2014-Nov-08 06:34N 35°56' W 005°19'  
Track history (hours):
 
Tides and Currents Weather Stations Pressure Air Temp Water Temp Dewpoint Dewpoint Depression Visibility Wind Speed Wind Dir Waves Ship Positions

Tinsdal

Last reported at 2014-Nov-12 15:09 UTC. Time now 2014-Nov-28 00:17 UTC.
Position N 38°20' E 015°29'.
Warning: this ship's position is 15 days out of date.

Length 90 m; draft 5.9 m.

Type: Cargo ship. MMSI: 305573000.

Date/timePositionNaut miles runAvg speedWind from/ knotsBaromVisibWave heightAir tempDewpointWater temp
2014-Nov-12 15:09N 38°20' E 015°29'610.4
2014-Nov-12 14:32N 38°20' E 015°20'10 9.8
2014-Nov-12 13:31N 38°20' E 015°08'66 9.5
2014-Nov-12 06:33N 38°18' E 013°43'10 9.6
2014-Nov-12 05:33N 38°18' E 013°31'1010.5
2014-Nov-12 04:34N 38°18' E 013°18'1111.1
2014-Nov-12 03:33N 38°18' E 013°03'1110.6
2014-Nov-12 02:32N 38°18' E 012°50'  
2014-Nov-08 15:34N 35°55' W 005°18'1 1.3
2014-Nov-08 14:32N 35°54' W 005°18'0 0.0
2014-Nov-08 13:32N 35°54' W 005°18'0 0.0
2014-Nov-08 12:32N 35°54' W 005°18'0 0.0
2014-Nov-08 11:32N 35°54' W 005°18'0 0.0
2014-Nov-08 10:32N 35°54' W 005°18'0 0.0
2014-Nov-08 09:32N 35°54' W 005°18'0 0.0
2014-Nov-08 08:32N 35°54' W 005°18'1 1.1
2014-Nov-08 07:33N 35°55' W 005°19'1 1.1
2014-Nov-08 06:34N 35°56' W 005°19'  

Dump ship's entire track history